<?xml version="1.0" encoding="UTF-8" standalone="no" ?>
<gpx xmlns="http://www.topografix.com/GPX/1/1" xmlns:xsi="http://www.w3.org/2001/XMLSchema-instance" xsi:schemaLocation="http://www.topografix.com/GPX/1/1 http://www.topografix.com/GPX/1/1/gpx.xsd" version="1.1" creator="VisuGPX - https://www.visugpx.com">
  <metadata>
    <name>Grande boucle 2 Moussais</name>
  </metadata>
  <trk>
    <name><![CDATA[Grande boucle 2 Trois Batailles Poitiers]]></name>
    <extensions>
      <line xmlns="http://www.topografix.com/GPX/gpx_style/0/2">
        <color>00FF00</color>
        <width>4</width>
      </line>
    </extensions>
    <trkseg>
      <trkpt lat="46.69899" lon="0.42941">
        <ele>71.1</ele>
      </trkpt>
      <trkpt lat="46.69626" lon="0.42568">
        <ele>68.4</ele>
      </trkpt>
      <trkpt lat="46.69558" lon="0.42551">
        <ele>78.5</ele>
      </trkpt>
      <trkpt lat="46.69396" lon="0.42448">
        <ele>92.5</ele>
      </trkpt>
      <trkpt lat="46.69228" lon="0.4231">
        <ele>96</ele>
      </trkpt>
      <trkpt lat="46.68999" lon="0.42684">
        <ele>98.1</ele>
      </trkpt>
      <trkpt lat="46.68854" lon="0.4242">
        <ele>99.3</ele>
      </trkpt>
      <trkpt lat="46.68934" lon="0.42278">
        <ele>85.8</ele>
      </trkpt>
      <trkpt lat="46.68905" lon="0.42121">
        <ele>70.6</ele>
      </trkpt>
      <trkpt lat="46.68794" lon="0.42167">
        <ele>71.6</ele>
      </trkpt>
      <trkpt lat="46.68629" lon="0.42285">
        <ele>74.5</ele>
      </trkpt>
      <trkpt lat="46.68457" lon="0.42409">
        <ele>75.7</ele>
      </trkpt>
      <trkpt lat="46.68435" lon="0.42518">
        <ele>76.2</ele>
      </trkpt>
      <trkpt lat="46.68538" lon="0.42675">
        <ele>80.5</ele>
      </trkpt>
      <trkpt lat="46.68513" lon="0.42774">
        <ele>80.2</ele>
      </trkpt>
      <trkpt lat="46.68517" lon="0.42778">
        <ele>80.9</ele>
      </trkpt>
      <trkpt lat="46.68401" lon="0.42881">
        <ele>83.4</ele>
      </trkpt>
      <trkpt lat="46.68366" lon="0.42997">
        <ele>86.1</ele>
      </trkpt>
      <trkpt lat="46.68174" lon="0.42769">
        <ele>86.4</ele>
      </trkpt>
      <trkpt lat="46.68065" lon="0.42658">
        <ele>98</ele>
        <time>2022-07-11T11:24:54Z</time>
      </trkpt>
      <trkpt lat="46.67709" lon="0.42276">
        <ele>105</ele>
      </trkpt>
      <trkpt lat="46.6748" lon="0.42014">
        <ele>109.4</ele>
      </trkpt>
      <trkpt lat="46.67365" lon="0.41834">
        <ele>110</ele>
        <time>2022-07-11T11:38:28Z</time>
      </trkpt>
      <trkpt lat="46.66517" lon="0.41036">
        <ele>97</ele>
        <time>2022-07-11T11:51:57Z</time>
      </trkpt>
      <trkpt lat="46.66148" lon="0.40662">
        <ele>97</ele>
      </trkpt>
      <trkpt lat="46.6568" lon="0.40237">
        <ele>98.5</ele>
        <time>2022-07-11T12:10:29Z</time>
      </trkpt>
      <trkpt lat="46.65259" lon="0.39821">
        <ele>112</ele>
      </trkpt>
      <trkpt lat="46.65088" lon="0.39628">
        <ele>106.5</ele>
      </trkpt>
      <trkpt lat="46.65085" lon="0.39615">
        <ele>106.1</ele>
      </trkpt>
      <trkpt lat="46.64649" lon="0.38778">
        <ele>93.4</ele>
      </trkpt>
      <trkpt lat="46.64499" lon="0.38615">
        <ele>72.3</ele>
        <time>2022-07-11T12:24:33Z</time>
      </trkpt>
      <trkpt lat="46.64496" lon="0.38606">
        <ele>74</ele>
        <time>2022-07-11T07:19:27Z</time>
      </trkpt>
      <trkpt lat="46.64312" lon="0.38627">
        <ele>76</ele>
        <time>2022-07-11T07:21:55Z</time>
      </trkpt>
      <trkpt lat="46.6401" lon="0.38512">
        <ele>67.9</ele>
        <time>2022-07-11T07:26:59Z</time>
      </trkpt>
      <trkpt lat="46.63904" lon="0.38534">
        <ele>67.1</ele>
      </trkpt>
      <trkpt lat="46.63915" lon="0.38757">
        <ele>67</ele>
        <time>2022-07-11T07:28:58Z</time>
      </trkpt>
      <trkpt lat="46.63767" lon="0.38988">
        <ele>73</ele>
        <time>2022-07-11T07:31:42Z</time>
      </trkpt>
      <trkpt lat="46.63565" lon="0.39087">
        <ele>70.4</ele>
        <time>2022-07-11T07:34:56Z</time>
      </trkpt>
      <trkpt lat="46.63491" lon="0.39203">
        <ele>72.1</ele>
      </trkpt>
      <trkpt lat="46.63468" lon="0.39353">
        <ele>72.5</ele>
      </trkpt>
      <trkpt lat="46.63482" lon="0.39594">
        <ele>72.5</ele>
      </trkpt>
      <trkpt lat="46.63544" lon="0.39705">
        <ele>77.4</ele>
        <time>2022-07-11T07:40:14Z</time>
      </trkpt>
      <trkpt lat="46.63842" lon="0.39833">
        <ele>87</ele>
        <time>2022-07-11T07:44:48Z</time>
      </trkpt>
      <trkpt lat="46.63951" lon="0.40242">
        <ele>116.9</ele>
        <time>2022-07-11T07:48:07Z</time>
      </trkpt>
      <trkpt lat="46.64207" lon="0.40456">
        <ele>125.4</ele>
        <time>2022-07-11T07:52:02Z</time>
      </trkpt>
      <trkpt lat="46.64767" lon="0.41237">
        <ele>121.1</ele>
      </trkpt>
      <trkpt lat="46.64829" lon="0.41392">
        <ele>120.2</ele>
        <time>2022-07-11T08:03:43Z</time>
      </trkpt>
      <trkpt lat="46.64808" lon="0.41808">
        <ele>124.9</ele>
        <time>2022-07-11T08:07:22Z</time>
      </trkpt>
      <trkpt lat="46.65194" lon="0.42027">
        <ele>116</ele>
        <time>2022-07-11T08:13:27Z</time>
      </trkpt>
      <trkpt lat="46.65262" lon="0.42641">
        <ele>127.5</ele>
      </trkpt>
      <trkpt lat="46.65219" lon="0.42821">
        <ele>129</ele>
        <time>2022-07-11T08:20:44Z</time>
      </trkpt>
      <trkpt lat="46.64864" lon="0.43598">
        <ele>131.4</ele>
        <time>2022-07-11T08:29:00Z</time>
      </trkpt>
      <trkpt lat="46.64852" lon="0.43812">
        <ele>128</ele>
      </trkpt>
      <trkpt lat="46.64926" lon="0.44701">
        <ele>125.3</ele>
        <time>2022-07-11T08:38:45Z</time>
      </trkpt>
      <trkpt lat="46.64846" lon="0.45053">
        <ele>123</ele>
      </trkpt>
      <trkpt lat="46.64876" lon="0.45263">
        <ele>123.7</ele>
        <time>2022-07-11T08:43:06Z</time>
      </trkpt>
      <trkpt lat="46.65038" lon="0.45606">
        <ele>118.8</ele>
        <time>2022-07-11T08:47:45Z</time>
      </trkpt>
      <trkpt lat="46.65094" lon="0.45482">
        <ele>117.5</ele>
      </trkpt>
      <trkpt lat="46.65397" lon="0.45735">
        <ele>110.7</ele>
      </trkpt>
      <trkpt lat="46.65509" lon="0.45872">
        <ele>108.6</ele>
      </trkpt>
      <trkpt lat="46.65683" lon="0.45782">
        <ele>110.9</ele>
      </trkpt>
      <trkpt lat="46.65816" lon="0.45765">
        <ele>111.3</ele>
      </trkpt>
      <trkpt lat="46.65933" lon="0.45812">
        <ele>108.4</ele>
      </trkpt>
      <trkpt lat="46.66067" lon="0.45746">
        <ele>103</ele>
        <time>2022-07-11T09:01:06Z</time>
      </trkpt>
      <trkpt lat="46.66047" lon="0.45962">
        <ele>106.2</ele>
      </trkpt>
      <trkpt lat="46.65935" lon="0.46368">
        <ele>104</ele>
      </trkpt>
      <trkpt lat="46.65891" lon="0.46634">
        <ele>104.9</ele>
      </trkpt>
      <trkpt lat="46.65851" lon="0.46722">
        <ele>108.6</ele>
        <time>2022-07-11T09:10:41Z</time>
      </trkpt>
      <trkpt lat="46.65686" lon="0.4701">
        <ele>114.6</ele>
      </trkpt>
      <trkpt lat="46.65933" lon="0.47516">
        <ele>136</ele>
        <time>2022-07-11T09:16:20Z</time>
      </trkpt>
      <trkpt lat="46.6674" lon="0.49181">
        <ele>139.3</ele>
      </trkpt>
      <trkpt lat="46.67123" lon="0.49911">
        <ele>135</ele>
      </trkpt>
      <trkpt lat="46.67683" lon="0.4937">
        <ele>141</ele>
      </trkpt>
      <trkpt lat="46.67477" lon="0.48975">
        <ele>141</ele>
      </trkpt>
      <trkpt lat="46.67677" lon="0.48769">
        <ele>140.7</ele>
        <time>2022-07-11T09:37:18Z</time>
      </trkpt>
      <trkpt lat="46.67733" lon="0.48121">
        <ele>117.2</ele>
        <time>2022-07-11T09:39:35Z</time>
      </trkpt>
      <trkpt lat="46.67745" lon="0.47962">
        <ele>112.8</ele>
      </trkpt>
      <trkpt lat="46.6773" lon="0.4766">
        <ele>115</ele>
        <time>2022-07-11T09:44:16Z</time>
      </trkpt>
      <trkpt lat="46.67821" lon="0.47292">
        <ele>111</ele>
        <time>2022-07-11T09:47:51Z</time>
      </trkpt>
      <trkpt lat="46.67782" lon="0.46953">
        <ele>105</ele>
        <time>2022-07-11T09:51:00Z</time>
      </trkpt>
      <trkpt lat="46.67642" lon="0.46409">
        <ele>96</ele>
      </trkpt>
      <trkpt lat="46.6765" lon="0.46053">
        <ele>100.9</ele>
      </trkpt>
      <trkpt lat="46.67618" lon="0.45705">
        <ele>104.2</ele>
      </trkpt>
      <trkpt lat="46.67459" lon="0.44821">
        <ele>115</ele>
        <time>2022-07-11T10:11:26Z</time>
      </trkpt>
      <trkpt lat="46.67518" lon="0.44405">
        <ele>115.8</ele>
      </trkpt>
      <trkpt lat="46.67612" lon="0.44031">
        <ele>111.1</ele>
        <time>2022-07-11T10:14:14Z</time>
      </trkpt>
      <trkpt lat="46.67759" lon="0.43602">
        <ele>105.7</ele>
      </trkpt>
      <trkpt lat="46.68026" lon="0.42963">
        <ele>86.7</ele>
      </trkpt>
      <trkpt lat="46.68085" lon="0.43021">
        <ele>92.1</ele>
      </trkpt>
      <trkpt lat="46.68132" lon="0.43083">
        <ele>93.7</ele>
      </trkpt>
      <trkpt lat="46.6825" lon="0.42866">
        <ele>92</ele>
      </trkpt>
      <trkpt lat="46.68319" lon="0.4295">
        <ele>88.1</ele>
      </trkpt>
      <trkpt lat="46.68448" lon="0.43096">
        <ele>93.3</ele>
      </trkpt>
      <trkpt lat="46.68743" lon="0.43396">
        <ele>103.7</ele>
      </trkpt>
      <trkpt lat="46.68949" lon="0.43598">
        <ele>109</ele>
      </trkpt>
      <trkpt lat="46.6942" lon="0.44104">
        <ele>94.2</ele>
      </trkpt>
      <trkpt lat="46.69952" lon="0.44563">
        <ele>87.9</ele>
      </trkpt>
      <trkpt lat="46.70085" lon="0.44121">
        <ele>102.7</ele>
      </trkpt>
      <trkpt lat="46.69832" lon="0.44014">
        <ele>98.5</ele>
      </trkpt>
      <trkpt lat="46.6964" lon="0.43688">
        <ele>101</ele>
      </trkpt>
      <trkpt lat="46.69746" lon="0.43499">
        <ele>104.1</ele>
      </trkpt>
      <trkpt lat="46.69932" lon="0.4322">
        <ele>97.3</ele>
      </trkpt>
      <trkpt lat="46.69899" lon="0.42941">
        <ele>71.1</ele>
      </trkpt>
    </trkseg>
  </trk>
</gpx>